sensor_id;sensor_type;location;lat;lon;timestamp;P1;durP1;ratioP1;P2;durP2;ratioP2
4214;SDS011;2121;48.062;7.850;2023-08-30T00:00:41;4.50;;;3.60;;
4214;SDS011;2121;48.062;7.850;2023-08-30T00:03:07;4.40;;;3.90;;
4214;SDS011;2121;48.062;7.850;2023-08-30T00:05:33;3.50;;;3.20;;
4214;SDS011;2121;48.062;7.850;2023-08-30T00:07:59;3.87;;;3.57;;
4214;SDS011;2121;48.062;7.850;2023-08-30T00:10:24;5.00;;;3.87;;
4214;SDS011;2121;48.062;7.850;2023-08-30T00:12:50;4.60;;;4.20;;
4214;SDS011;2121;48.062;7.850;2023-08-30T00:15:16;3.90;;;3.50;;
4214;SDS011;2121;48.062;7.850;2023-08-30T00:17:42;4.70;;;4.30;;
4214;SDS011;2121;48.062;7.850;2023-08-30T00:20:08;4.07;;;3.73;;
4214;SDS011;2121;48.062;7.850;2023-08-30T00:22:34;3.90;;;3.60;;
4214;SDS011;2121;48.062;7.850;2023-08-30T00:25:01;10.23;;;4.60;;
4214;SDS011;2121;48.062;7.850;2023-08-30T00:27:27;5.17;;;4.47;;
4214;SDS011;2121;48.062;7.850;2023-08-30T00:29:52;4.90;;;4.50;;
4214;SDS011;2121;48.062;7.850;2023-08-30T00:32:18;4.40;;;4.00;;
4214;SDS011;2121;48.062;7.850;2023-08-30T00:34:44;4.97;;;4.47;;
4214;SDS011;2121;48.062;7.850;2023-08-30T00:37:10;4.80;;;4.20;;
4214;SDS011;2121;48.062;7.850;2023-08-30T00:39:38;4.93;;;4.53;;
4214;SDS011;2121;48.062;7.850;2023-08-30T00:42:05;4.70;;;4.30;;
4214;SDS011;2121;48.062;7.850;2023-08-30T00:44:32;5.53;;;4.13;;
4214;SDS011;2121;48.062;7.850;2023-08-30T00:46:59;4.40;;;4.10;;
4214;SDS011;2121;48.062;7.850;2023-08-30T00:49:27;4.17;;;3.87;;
4214;SDS011;2121;48.062;7.850;2023-08-30T00:51:56;4.20;;;3.90;;
4214;SDS011;2121;48.062;7.850;2023-08-30T00:54:28;5.10;;;4.23;;
4214;SDS011;2121;48.062;7.850;2023-08-30T00:56:54;6.83;;;4.60;;
4214;SDS011;2121;48.062;7.850;2023-08-30T00:59:20;4.53;;;4.20;;
4214;SDS011;2121;48.062;7.850;2023-08-30T01:01:47;4.07;;;3.77;;
4214;SDS011;2121;48.062;7.850;2023-08-30T01:04:13;4.23;;;3.93;;
4214;SDS011;2121;48.062;7.850;2023-08-30T01:06:39;5.50;;;5.10;;
4214;SDS011;2121;48.062;7.850;2023-08-30T01:09:06;4.73;;;4.00;;
4214;SDS011;2121;48.062;7.850;2023-08-30T01:14:07;5.53;;;4.70;;
4214;SDS011;2121;48.062;7.850;2023-08-30T01:16:47;4.93;;;3.90;;
4214;SDS011;2121;48.062;7.850;2023-08-30T01:22:21;8.10;;;4.60;;
4214;SDS011;2121;48.062;7.850;2023-08-30T01:25:27;5.47;;;4.97;;
4214;SDS011;2121;48.062;7.850;2023-08-30T01:28:07;5.10;;;4.57;;
4214;SDS011;2121;48.062;7.850;2023-08-30T01:30:35;4.23;;;3.50;;
4214;SDS011;2121;48.062;7.850;2023-08-30T01:33:06;4.50;;;4.13;;
4214;SDS011;2121;48.062;7.850;2023-08-30T01:35:33;5.33;;;4.83;;
4214;SDS011;2121;48.062;7.850;2023-08-30T01:38:02;4.10;;;3.80;;
4214;SDS011;2121;48.062;7.850;2023-08-30T01:40:30;4.33;;;4.00;;
4214;SDS011;2121;48.062;7.850;2023-08-30T01:43:01;9.93;;;5.17;;
4214;SDS011;2121;48.062;7.850;2023-08-30T01:45:30;4.10;;;3.70;;
4214;SDS011;2121;48.062;7.850;2023-08-30T01:48:00;4.33;;;4.03;;
4214;SDS011;2121;48.062;7.850;2023-08-30T01:50:26;4.80;;;4.47;;
4214;SDS011;2121;48.062;7.850;2023-08-30T01:52:52;3.93;;;3.63;;
4214;SDS011;2121;48.062;7.850;2023-08-30T01:55:20;4.30;;;3.93;;
4214;SDS011;2121;48.062;7.850;2023-08-30T01:57:47;4.27;;;3.97;;
4214;SDS011;2121;48.062;7.850;2023-08-30T02:00:13;4.27;;;3.87;;
4214;SDS011;2121;48.062;7.850;2023-08-30T02:02:40;4.00;;;3.60;;
4214;SDS011;2121;48.062;7.850;2023-08-30T02:05:06;5.20;;;4.27;;
4214;SDS011;2121;48.062;7.850;2023-08-30T02:10:55;4.53;;;4.17;;
4214;SDS011;2121;48.062;7.850;2023-08-30T02:13:27;6.97;;;4.30;;
4214;SDS011;2121;48.062;7.850;2023-08-30T02:15:55;4.43;;;4.03;;
4214;SDS011;2121;48.062;7.850;2023-08-30T02:18:24;4.50;;;4.10;;
4214;SDS011;2121;48.062;7.850;2023-08-30T02:20:51;4.80;;;4.40;;
4214;SDS011;2121;48.062;7.850;2023-08-30T02:23:17;4.77;;;4.40;;
4214;SDS011;2121;48.062;7.850;2023-08-30T02:25:42;4.70;;;4.30;;
4214;SDS011;2121;48.062;7.850;2023-08-30T02:28:08;4.40;;;4.00;;
4214;SDS011;2121;48.062;7.850;2023-08-30T02:30:34;4.70;;;4.30;;
4214;SDS011;2121;48.062;7.850;2023-08-30T02:33:00;5.13;;;4.63;;
4214;SDS011;2121;48.062;7.850;2023-08-30T02:35:25;4.37;;;4.07;;
4214;SDS011;2121;48.062;7.850;2023-08-30T02:37:51;5.07;;;4.67;;
4214;SDS011;2121;48.062;7.850;2023-08-30T02:40:17;5.17;;;4.30;;
4214;SDS011;2121;48.062;7.850;2023-08-30T02:42:42;11.23;;;4.70;;
4214;SDS011;2121;48.062;7.850;2023-08-30T02:45:08;4.70;;;4.30;;
4214;SDS011;2121;48.062;7.850;2023-08-30T02:47:34;3.60;;;3.30;;
4214;SDS011;2121;48.062;7.850;2023-08-30T02:50:00;3.90;;;3.60;;
4214;SDS011;2121;48.062;7.850;2023-08-30T02:52:26;7.53;;;3.60;;
4214;SDS011;2121;48.062;7.850;2023-08-30T02:54:52;4.73;;;4.33;;
4214;SDS011;2121;48.062;7.850;2023-08-30T02:57:17;4.50;;;3.77;;
4214;SDS011;2121;48.062;7.850;2023-08-30T02:59:43;3.03;;;2.83;;
4214;SDS011;2121;48.062;7.850;2023-08-30T03:02:09;6.90;;;3.90;;
4214;SDS011;2121;48.062;7.850;2023-08-30T03:04:34;4.00;;;3.70;;
4214;SDS011;2121;48.062;7.850;2023-08-30T03:07:00;4.83;;;3.90;;
4214;SDS011;2121;48.062;7.850;2023-08-30T03:09:26;4.17;;;3.80;;
4214;SDS011;2121;48.062;7.850;2023-08-30T03:11:52;5.33;;;4.93;;
4214;SDS011;2121;48.062;7.850;2023-08-30T03:14:17;4.53;;;4.10;;
4214;SDS011;2121;48.062;7.850;2023-08-30T03:16:43;4.13;;;3.83;;
4214;SDS011;2121;48.062;7.850;2023-08-30T03:19:10;4.20;;;3.90;;
4214;SDS011;2121;48.062;7.850;2023-08-30T03:21:36;4.83;;;4.40;;
4214;SDS011;2121;48.062;7.850;2023-08-30T03:24:01;4.73;;;4.27;;
4214;SDS011;2121;48.062;7.850;2023-08-30T03:26:27;9.80;;;3.80;;
4214;SDS011;2121;48.062;7.850;2023-08-30T03:28:53;5.00;;;4.50;;
4214;SDS011;2121;48.062;7.850;2023-08-30T03:31:19;4.53;;;4.13;;
4214;SDS011;2121;48.062;7.850;2023-08-30T03:33:49;7.33;;;4.87;;
4214;SDS011;2121;48.062;7.850;2023-08-30T03:36:16;5.07;;;4.20;;
4214;SDS011;2121;48.062;7.850;2023-08-30T03:38:43;4.10;;;3.80;;
4214;SDS011;2121;48.062;7.850;2023-08-30T03:41:10;3.80;;;3.40;;
4214;SDS011;2121;48.062;7.850;2023-08-30T03:43:36;5.37;;;3.90;;
4214;SDS011;2121;48.062;7.850;2023-08-30T03:46:02;4.60;;;4.20;;
4214;SDS011;2121;48.062;7.850;2023-08-30T03:48:28;5.33;;;4.17;;
4214;SDS011;2121;48.062;7.850;2023-08-30T03:50:55;3.97;;;3.67;;
4214;SDS011;2121;48.062;7.850;2023-08-30T03:53:22;4.97;;;4.47;;
4214;SDS011;2121;48.062;7.850;2023-08-30T03:55:48;4.07;;;3.73;;
4214;SDS011;2121;48.062;7.850;2023-08-30T03:58:15;7.13;;;4.30;;
4214;SDS011;2121;48.062;7.850;2023-08-30T04:00:41;4.43;;;4.13;;
4214;SDS011;2121;48.062;7.850;2023-08-30T04:03:08;5.83;;;5.23;;
4214;SDS011;2121;48.062;7.850;2023-08-30T04:05:35;5.07;;;4.60;;
4214;SDS011;2121;48.062;7.850;2023-08-30T04:08:04;4.93;;;4.10;;
4214;SDS011;2121;48.062;7.850;2023-08-30T04:10:38;5.43;;;4.80;;
4214;SDS011;2121;48.062;7.850;2023-08-30T04:13:05;5.30;;;4.90;;
4214;SDS011;2121;48.062;7.850;2023-08-30T04:15:32;5.00;;;4.43;;
4214;SDS011;2121;48.062;7.850;2023-08-30T04:18:02;4.53;;;4.10;;
4214;SDS011;2121;48.062;7.850;2023-08-30T04:20:29;4.80;;;4.40;;
4214;SDS011;2121;48.062;7.850;2023-08-30T04:22:55;5.33;;;5.03;;
4214;SDS011;2121;48.062;7.850;2023-08-30T04:25:21;4.73;;;4.30;;
4214;SDS011;2121;48.062;7.850;2023-08-30T04:27:47;4.90;;;4.40;;
4214;SDS011;2121;48.062;7.850;2023-08-30T04:30:13;4.40;;;4.00;;
4214;SDS011;2121;48.062;7.850;2023-08-30T04:32:40;4.93;;;4.53;;
4214;SDS011;2121;48.062;7.850;2023-08-30T04:35:06;4.87;;;4.47;;
4214;SDS011;2121;48.062;7.850;2023-08-30T04:37:32;4.77;;;4.37;;
4214;SDS011;2121;48.062;7.850;2023-08-30T04:39:58;5.83;;;5.20;;
4214;SDS011;2121;48.062;7.850;2023-08-30T04:42:24;5.17;;;4.77;;
4214;SDS011;2121;48.062;7.850;2023-08-30T04:44:50;5.80;;;5.30;;
4214;SDS011;2121;48.062;7.850;2023-08-30T04:47:19;4.73;;;4.43;;
4214;SDS011;2121;48.062;7.850;2023-08-30T04:49:49;4.83;;;4.00;;
4214;SDS011;2121;48.062;7.850;2023-08-30T04:52:16;5.70;;;5.17;;
4214;SDS011;2121;48.062;7.850;2023-08-30T04:54:42;4.60;;;4.20;;
4214;SDS011;2121;48.062;7.850;2023-08-30T04:57:08;5.30;;;4.90;;
4214;SDS011;2121;48.062;7.850;2023-08-30T04:59:33;5.30;;;4.80;;
4214;SDS011;2121;48.062;7.850;2023-08-30T05:01:59;7.00;;;4.27;;
4214;SDS011;2121;48.062;7.850;2023-08-30T05:04:25;4.47;;;4.17;;
4214;SDS011;2121;48.062;7.850;2023-08-30T05:06:50;4.87;;;4.50;;
4214;SDS011;2121;48.062;7.850;2023-08-30T05:09:16;4.73;;;4.10;;
4214;SDS011;2121;48.062;7.850;2023-08-30T05:11:42;4.93;;;4.53;;
4214;SDS011;2121;48.062;7.850;2023-08-30T05:14:07;6.73;;;4.60;;
4214;SDS011;2121;48.062;7.850;2023-08-30T05:16:37;5.23;;;4.73;;
4214;SDS011;2121;48.062;7.850;2023-08-30T05:19:04;6.03;;;5.17;;
4214;SDS011;2121;48.062;7.850;2023-08-30T05:21:29;4.73;;;4.43;;
4214;SDS011;2121;48.062;7.850;2023-08-30T05:23:55;5.97;;;4.83;;
4214;SDS011;2121;48.062;7.850;2023-08-30T05:26:21;4.80;;;4.40;;
4214;SDS011;2121;48.062;7.850;2023-08-30T05:28:46;4.80;;;4.40;;
4214;SDS011;2121;48.062;7.850;2023-08-30T05:31:12;7.43;;;4.90;;
4214;SDS011;2121;48.062;7.850;2023-08-30T05:33:38;4.87;;;4.47;;
4214;SDS011;2121;48.062;7.850;2023-08-30T05:36:03;4.77;;;4.30;;
4214;SDS011;2121;48.062;7.850;2023-08-30T05:38:29;5.40;;;4.90;;
4214;SDS011;2121;48.062;7.850;2023-08-30T05:40:55;4.37;;;4.03;;
4214;SDS011;2121;48.062;7.850;2023-08-30T05:43:21;5.07;;;4.57;;
4214;SDS011;2121;48.062;7.850;2023-08-30T05:45:47;5.03;;;4.63;;
4214;SDS011;2121;48.062;7.850;2023-08-30T05:48:13;3.93;;;3.73;;
4214;SDS011;2121;48.062;7.850;2023-08-30T05:50:38;3.83;;;3.53;;
4214;SDS011;2121;48.062;7.850;2023-08-30T05:53:05;4.50;;;4.10;;
4214;SDS011;2121;48.062;7.850;2023-08-30T05:55:31;5.40;;;4.87;;
4214;SDS011;2121;48.062;7.850;2023-08-30T05:57:57;4.33;;;3.67;;
4214;SDS011;2121;48.062;7.850;2023-08-30T06:00:22;7.10;;;4.87;;
4214;SDS011;2121;48.062;7.850;2023-08-30T06:02:50;5.03;;;4.63;;
4214;SDS011;2121;48.062;7.850;2023-08-30T06:05:17;6.17;;;5.60;;
4214;SDS011;2121;48.062;7.850;2023-08-30T06:07:43;5.70;;;5.27;;
4214;SDS011;2121;48.062;7.850;2023-08-30T06:10:09;7.13;;;5.47;;
4214;SDS011;2121;48.062;7.850;2023-08-30T06:12:35;6.80;;;5.23;;
4214;SDS011;2121;48.062;7.850;2023-08-30T06:15:01;7.10;;;5.20;;
4214;SDS011;2121;48.062;7.850;2023-08-30T06:17:28;4.87;;;4.47;;
4214;SDS011;2121;48.062;7.850;2023-08-30T06:19:54;7.63;;;6.00;;
4214;SDS011;2121;48.062;7.850;2023-08-30T06:22:20;5.63;;;4.93;;
4214;SDS011;2121;48.062;7.850;2023-08-30T06:24:46;5.63;;;5.07;;
4214;SDS011;2121;48.062;7.850;2023-08-30T06:27:11;7.37;;;4.90;;
4214;SDS011;2121;48.062;7.850;2023-08-30T06:29:37;9.40;;;4.50;;
4214;SDS011;2121;48.062;7.850;2023-08-30T06:32:03;4.83;;;4.40;;
4214;SDS011;2121;48.062;7.850;2023-08-30T06:34:29;4.03;;;3.73;;
4214;SDS011;2121;48.062;7.850;2023-08-30T06:36:55;4.37;;;3.97;;
4214;SDS011;2121;48.062;7.850;2023-08-30T06:39:21;4.20;;;3.90;;
4214;SDS011;2121;48.062;7.850;2023-08-30T06:41:47;5.10;;;4.33;;
4214;SDS011;2121;48.062;7.850;2023-08-30T06:44:13;3.80;;;3.60;;
4214;SDS011;2121;48.062;7.850;2023-08-30T06:46:39;3.87;;;3.57;;
4214;SDS011;2121;48.062;7.850;2023-08-30T06:49:05;4.97;;;3.93;;
4214;SDS011;2121;48.062;7.850;2023-08-30T06:51:31;4.27;;;3.90;;
4214;SDS011;2121;48.062;7.850;2023-08-30T06:53:56;5.07;;;3.90;;
4214;SDS011;2121;48.062;7.850;2023-08-30T06:56:25;3.87;;;3.67;;
4214;SDS011;2121;48.062;7.850;2023-08-30T06:58:52;4.43;;;4.13;;
4214;SDS011;2121;48.062;7.850;2023-08-30T07:01:17;4.20;;;3.90;;
4214;SDS011;2121;48.062;7.850;2023-08-30T07:03:43;3.93;;;3.63;;
4214;SDS011;2121;48.062;7.850;2023-08-30T07:06:09;4.17;;;3.70;;
4214;SDS011;2121;48.062;7.850;2023-08-30T07:08:35;5.50;;;3.90;;
4214;SDS011;2121;48.062;7.850;2023-08-30T07:11:01;3.47;;;3.17;;
4214;SDS011;2121;48.062;7.850;2023-08-30T07:13:27;3.60;;;3.30;;
4214;SDS011;2121;48.062;7.850;2023-08-30T07:15:53;3.10;;;2.90;;
4214;SDS011;2121;48.062;7.850;2023-08-30T07:18:19;3.67;;;3.43;;
4214;SDS011;2121;48.062;7.850;2023-08-30T07:20:45;3.27;;;3.07;;
4214;SDS011;2121;48.062;7.850;2023-08-30T07:23:10;3.23;;;3.03;;
4214;SDS011;2121;48.062;7.850;2023-08-30T07:25:36;4.40;;;2.80;;
4214;SDS011;2121;48.062;7.850;2023-08-30T07:28:03;7.27;;;2.93;;
4214;SDS011;2121;48.062;7.850;2023-08-30T07:30:30;2.90;;;2.70;;
4214;SDS011;2121;48.062;7.850;2023-08-30T07:32:56;3.10;;;2.90;;
4214;SDS011;2121;48.062;7.850;2023-08-30T07:35:21;5.30;;;3.07;;
4214;SDS011;2121;48.062;7.850;2023-08-30T07:37:47;3.23;;;3.03;;
4214;SDS011;2121;48.062;7.850;2023-08-30T07:40:13;3.83;;;3.53;;
4214;SDS011;2121;48.062;7.850;2023-08-30T07:42:39;4.27;;;3.20;;
4214;SDS011;2121;48.062;7.850;2023-08-30T07:45:05;8.20;;;3.50;;
4214;SDS011;2121;48.062;7.850;2023-08-30T07:47:31;2.90;;;2.70;;
4214;SDS011;2121;48.062;7.850;2023-08-30T07:49:57;2.97;;;2.77;;
4214;SDS011;2121;48.062;7.850;2023-08-30T07:52:23;3.30;;;3.10;;
4214;SDS011;2121;48.062;7.850;2023-08-30T07:54:49;3.43;;;3.23;;
4214;SDS011;2121;48.062;7.850;2023-08-30T07:57:14;3.67;;;3.37;;
4214;SDS011;2121;48.062;7.850;2023-08-30T07:59:40;4.50;;;3.10;;
4214;SDS011;2121;48.062;7.850;2023-08-30T08:02:06;3.07;;;2.87;;
4214;SDS011;2121;48.062;7.850;2023-08-30T08:04:33;4.50;;;2.70;;
4214;SDS011;2121;48.062;7.850;2023-08-30T08:07:00;2.40;;;2.30;;
4214;SDS011;2121;48.062;7.850;2023-08-30T08:09:27;5.70;;;2.80;;
4214;SDS011;2121;48.062;7.850;2023-08-30T08:11:53;3.50;;;3.20;;
4214;SDS011;2121;48.062;7.850;2023-08-30T08:14:21;3.20;;;3.00;;
4214;SDS011;2121;48.062;7.850;2023-08-30T08:16:48;3.73;;;3.43;;
4214;SDS011;2121;48.062;7.850;2023-08-30T08:19:13;4.70;;;3.10;;
4214;SDS011;2121;48.062;7.850;2023-08-30T08:21:39;3.50;;;3.20;;
4214;SDS011;2121;48.062;7.850;2023-08-30T08:24:05;4.47;;;3.40;;
4214;SDS011;2121;48.062;7.850;2023-08-30T08:26:31;3.33;;;3.03;;
4214;SDS011;2121;48.062;7.850;2023-08-30T08:28:57;3.10;;;2.90;;
4214;SDS011;2121;48.062;7.850;2023-08-30T08:31:23;4.00;;;3.33;;
4214;SDS011;2121;48.062;7.850;2023-08-30T08:34:04;3.07;;;2.80;;
4214;SDS011;2121;48.062;7.850;2023-08-30T08:36:37;3.60;;;3.33;;
4214;SDS011;2121;48.062;7.850;2023-08-30T08:39:05;3.40;;;3.20;;
4214;SDS011;2121;48.062;7.850;2023-08-30T08:41:39;3.40;;;3.10;;
4214;SDS011;2121;48.062;7.850;2023-08-30T08:44:07;3.00;;;2.80;;
4214;SDS011;2121;48.062;7.850;2023-08-30T08:46:35;3.47;;;3.00;;
4214;SDS011;2121;48.062;7.850;2023-08-30T08:49:05;3.17;;;2.97;;
4214;SDS011;2121;48.062;7.850;2023-08-30T08:51:41;3.40;;;3.10;;
4214;SDS011;2121;48.062;7.850;2023-08-30T08:54:08;3.60;;;3.30;;
4214;SDS011;2121;48.062;7.850;2023-08-30T08:56:34;3.87;;;3.00;;
4214;SDS011;2121;48.062;7.850;2023-08-30T08:59:01;2.50;;;2.40;;
4214;SDS011;2121;48.062;7.850;2023-08-30T09:01:27;3.07;;;2.87;;
4214;SDS011;2121;48.062;7.850;2023-08-30T09:03:53;3.10;;;2.80;;
4214;SDS011;2121;48.062;7.850;2023-08-30T09:06:19;2.90;;;2.70;;
4214;SDS011;2121;48.062;7.850;2023-08-30T09:08:47;3.00;;;2.80;;
4214;SDS011;2121;48.062;7.850;2023-08-30T09:11:12;4.77;;;3.43;;
4214;SDS011;2121;48.062;7.850;2023-08-30T09:13:38;3.33;;;3.03;;
4214;SDS011;2121;48.062;7.850;2023-08-30T09:16:14;3.77;;;3.47;;
4214;SDS011;2121;48.062;7.850;2023-08-30T09:18:43;3.17;;;2.97;;
4214;SDS011;2121;48.062;7.850;2023-08-30T09:21:09;3.10;;;2.87;;
4214;SDS011;2121;48.062;7.850;2023-08-30T09:23:36;4.23;;;3.60;;
4214;SDS011;2121;48.062;7.850;2023-08-30T09:26:02;3.27;;;3.07;;
4214;SDS011;2121;48.062;7.850;2023-08-30T09:28:29;4.07;;;3.67;;
4214;SDS011;2121;48.062;7.850;2023-08-30T09:30:57;3.20;;;3.00;;
4214;SDS011;2121;48.062;7.850;2023-08-30T09:33:31;3.20;;;3.00;;
4214;SDS011;2121;48.062;7.850;2023-08-30T09:35:58;2.93;;;2.77;;
4214;SDS011;2121;48.062;7.850;2023-08-30T09:38:25;3.17;;;2.87;;
4214;SDS011;2121;48.062;7.850;2023-08-30T09:40:52;3.50;;;3.30;;
4214;SDS011;2121;48.062;7.850;2023-08-30T09:43:29;3.40;;;3.20;;
4214;SDS011;2121;48.062;7.850;2023-08-30T09:45:57;3.13;;;2.93;;
4214;SDS011;2121;48.062;7.850;2023-08-30T09:48:27;3.53;;;3.33;;
4214;SDS011;2121;48.062;7.850;2023-08-30T09:50:54;4.00;;;3.20;;
4214;SDS011;2121;48.062;7.850;2023-08-30T09:53:24;3.27;;;2.90;;
4214;SDS011;2121;48.062;7.850;2023-08-30T09:55:53;6.90;;;3.10;;
4214;SDS011;2121;48.062;7.850;2023-08-30T09:58:20;3.00;;;2.80;;
4214;SDS011;2121;48.062;7.850;2023-08-30T10:00:46;3.20;;;3.00;;
4214;SDS011;2121;48.062;7.850;2023-08-30T10:03:13;3.53;;;3.23;;
4214;SDS011;2121;48.062;7.850;2023-08-30T10:05:42;3.00;;;2.80;;
4214;SDS011;2121;48.062;7.850;2023-08-30T10:08:09;3.10;;;2.90;;
4214;SDS011;2121;48.062;7.850;2023-08-30T10:10:38;3.70;;;3.40;;
4214;SDS011;2121;48.062;7.850;2023-08-30T10:13:05;5.10;;;2.83;;
4214;SDS011;2121;48.062;7.850;2023-08-30T10:15:33;3.43;;;2.87;;
4214;SDS011;2121;48.062;7.850;2023-08-30T10:18:01;2.73;;;2.63;;
4214;SDS011;2121;48.062;7.850;2023-08-30T10:20:29;5.23;;;2.93;;
4214;SDS011;2121;48.062;7.850;2023-08-30T10:22:55;2.90;;;2.70;;
4214;SDS011;2121;48.062;7.850;2023-08-30T10:25:24;4.20;;;2.60;;
4214;SDS011;2121;48.062;7.850;2023-08-30T10:27:53;3.60;;;3.30;;
4214;SDS011;2121;48.062;7.850;2023-08-30T10:30:20;2.43;;;2.20;;
4214;SDS011;2121;48.062;7.850;2023-08-30T10:32:47;3.30;;;2.50;;
4214;SDS011;2121;48.062;7.850;2023-08-30T10:35:14;4.67;;;3.27;;
4214;SDS011;2121;48.062;7.850;2023-08-30T10:37:42;3.00;;;2.70;;
4214;SDS011;2121;48.062;7.850;2023-08-30T10:40:24;2.70;;;2.50;;
4214;SDS011;2121;48.062;7.850;2023-08-30T10:43:03;2.63;;;2.40;;
4214;SDS011;2121;48.062;7.850;2023-08-30T10:45:29;3.97;;;3.67;;
4214;SDS011;2121;48.062;7.850;2023-08-30T10:47:55;2.80;;;2.70;;
4214;SDS011;2121;48.062;7.850;2023-08-30T10:50:33;5.33;;;3.40;;
4214;SDS011;2121;48.062;7.850;2023-08-30T10:52:59;3.80;;;3.50;;
4214;SDS011;2121;48.062;7.850;2023-08-30T10:55:25;2.97;;;2.77;;
4214;SDS011;2121;48.062;7.850;2023-08-30T10:57:58;3.43;;;3.17;;
4214;SDS011;2121;48.062;7.850;2023-08-30T11:00:29;8.73;;;3.70;;
4214;SDS011;2121;48.062;7.850;2023-08-30T11:02:56;2.50;;;2.30;;
4214;SDS011;2121;48.062;7.850;2023-08-30T11:05:22;3.93;;;3.20;;
4214;SDS011;2121;48.062;7.850;2023-08-30T11:07:52;3.00;;;2.70;;
4214;SDS011;2121;48.062;7.850;2023-08-30T11:10:19;2.50;;;2.30;;
4214;SDS011;2121;48.062;7.850;2023-08-30T11:12:46;3.03;;;2.83;;
4214;SDS011;2121;48.062;7.850;2023-08-30T11:15:14;3.10;;;2.90;;
4214;SDS011;2121;48.062;7.850;2023-08-30T11:17:41;2.93;;;2.70;;
4214;SDS011;2121;48.062;7.850;2023-08-30T11:20:08;3.50;;;3.20;;
4214;SDS011;2121;48.062;7.850;2023-08-30T11:22:42;2.50;;;2.40;;
4214;SDS011;2121;48.062;7.850;2023-08-30T11:25:10;2.53;;;2.33;;
4214;SDS011;2121;48.062;7.850;2023-08-30T11:27:38;3.10;;;2.90;;
4214;SDS011;2121;48.062;7.850;2023-08-30T11:30:05;3.53;;;3.33;;
4214;SDS011;2121;48.062;7.850;2023-08-30T11:32:33;2.50;;;2.30;;
4214;SDS011;2121;48.062;7.850;2023-08-30T11:35:04;2.57;;;2.37;;
4214;SDS011;2121;48.062;7.850;2023-08-30T11:37:31;2.43;;;2.20;;
4214;SDS011;2121;48.062;7.850;2023-08-30T11:39:58;2.43;;;2.30;;
4214;SDS011;2121;48.062;7.850;2023-08-30T11:42:24;4.80;;;2.90;;
4214;SDS011;2121;48.062;7.850;2023-08-30T11:44:51;2.70;;;2.50;;
4214;SDS011;2121;48.062;7.850;2023-08-30T11:47:18;2.17;;;2.07;;
4214;SDS011;2121;48.062;7.850;2023-08-30T11:49:46;2.57;;;2.33;;
4214;SDS011;2121;48.062;7.850;2023-08-30T11:52:14;2.40;;;2.30;;
4214;SDS011;2121;48.062;7.850;2023-08-30T11:54:41;2.83;;;2.60;;
4214;SDS011;2121;48.062;7.850;2023-08-30T11:57:08;4.90;;;2.57;;
4214;SDS011;2121;48.062;7.850;2023-08-30T11:59:34;2.57;;;2.47;;
4214;SDS011;2121;48.062;7.850;2023-08-30T12:02:01;3.10;;;2.53;;
4214;SDS011;2121;48.062;7.850;2023-08-30T12:04:28;2.43;;;2.33;;
4214;SDS011;2121;48.062;7.850;2023-08-30T12:06:55;3.00;;;2.40;;
4214;SDS011;2121;48.062;7.850;2023-08-30T12:09:21;2.60;;;2.40;;
4214;SDS011;2121;48.062;7.850;2023-08-30T12:11:50;2.63;;;2.43;;
4214;SDS011;2121;48.062;7.850;2023-08-30T12:14:16;2.37;;;2.17;;
4214;SDS011;2121;48.062;7.850;2023-08-30T12:16:42;2.97;;;2.77;;
4214;SDS011;2121;48.062;7.850;2023-08-30T12:19:10;2.67;;;2.57;;
4214;SDS011;2121;48.062;7.850;2023-08-30T12:21:43;2.87;;;2.67;;
4214;SDS011;2121;48.062;7.850;2023-08-30T12:24:09;3.73;;;2.33;;
4214;SDS011;2121;48.062;7.850;2023-08-30T12:26:35;2.88;;;2.58;;
4214;SDS011;2121;48.062;7.850;2023-08-30T12:29:03;2.63;;;2.40;;
4214;SDS011;2121;48.062;7.850;2023-08-30T12:31:31;2.17;;;2.07;;
4214;SDS011;2121;48.062;7.850;2023-08-30T12:33:58;3.03;;;2.83;;
4214;SDS011;2121;48.062;7.850;2023-08-30T12:36:24;2.30;;;2.10;;
4214;SDS011;2121;48.062;7.850;2023-08-30T12:38:49;2.80;;;2.60;;
4214;SDS011;2121;48.062;7.850;2023-08-30T12:41:15;3.03;;;2.85;;
4214;SDS011;2121;48.062;7.850;2023-08-30T12:43:41;2.40;;;2.30;;
4214;SDS011;2121;48.062;7.850;2023-08-30T12:46:07;5.23;;;2.67;;
4214;SDS011;2121;48.062;7.850;2023-08-30T12:48:32;2.10;;;2.00;;
4214;SDS011;2121;48.062;7.850;2023-08-30T12:50:58;3.63;;;2.40;;
4214;SDS011;2121;48.062;7.850;2023-08-30T12:53:24;3.57;;;2.10;;
4214;SDS011;2121;48.062;7.850;2023-08-30T12:55:49;2.40;;;2.30;;
4214;SDS011;2121;48.062;7.850;2023-08-30T12:58:15;2.50;;;2.33;;
4214;SDS011;2121;48.062;7.850;2023-08-30T13:00:41;2.33;;;2.10;;
4214;SDS011;2121;48.062;7.850;2023-08-30T13:03:06;2.50;;;2.30;;
4214;SDS011;2121;48.062;7.850;2023-08-30T13:05:32;2.40;;;2.07;;
4214;SDS011;2121;48.062;7.850;2023-08-30T13:07:59;2.00;;;1.90;;
4214;SDS011;2121;48.062;7.850;2023-08-30T13:10:25;2.40;;;2.20;;
4214;SDS011;2121;48.062;7.850;2023-08-30T13:12:51;2.00;;;1.90;;
4214;SDS011;2121;48.062;7.850;2023-08-30T13:15:17;4.78;;;2.50;;
4214;SDS011;2121;48.062;7.850;2023-08-30T13:17:43;1.80;;;1.70;;
4214;SDS011;2121;48.062;7.850;2023-08-30T13:20:08;2.33;;;2.13;;
4214;SDS011;2121;48.062;7.850;2023-08-30T13:22:36;1.97;;;1.87;;
4214;SDS011;2121;48.062;7.850;2023-08-30T13:25:02;2.83;;;2.27;;
4214;SDS011;2121;48.062;7.850;2023-08-30T13:27:31;2.70;;;2.50;;
4214;SDS011;2121;48.062;7.850;2023-08-30T13:29:56;5.10;;;2.70;;
4214;SDS011;2121;48.062;7.850;2023-08-30T13:32:22;2.47;;;2.37;;
4214;SDS011;2121;48.062;7.850;2023-08-30T13:34:49;5.03;;;2.93;;
4214;SDS011;2121;48.062;7.850;2023-08-30T13:37:16;4.30;;;2.20;;
4214;SDS011;2121;48.062;7.850;2023-08-30T13:39:42;2.57;;;2.37;;
4214;SDS011;2121;48.062;7.850;2023-08-30T13:42:08;2.77;;;2.50;;
4214;SDS011;2121;48.062;7.850;2023-08-30T13:44:34;2.00;;;1.90;;
4214;SDS011;2121;48.062;7.850;2023-08-30T13:47:05;2.47;;;2.27;;
4214;SDS011;2121;48.062;7.850;2023-08-30T13:49:31;1.90;;;1.80;;
4214;SDS011;2121;48.062;7.850;2023-08-30T13:51:57;2.83;;;2.63;;
4214;SDS011;2121;48.062;7.850;2023-08-30T13:54:23;2.03;;;1.93;;
4214;SDS011;2121;48.062;7.850;2023-08-30T13:56:53;2.20;;;2.10;;
4214;SDS011;2121;48.062;7.850;2023-08-30T13:59:22;2.37;;;2.17;;
4214;SDS011;2121;48.062;7.850;2023-08-30T14:01:48;2.97;;;2.77;;
4214;SDS011;2121;48.062;7.850;2023-08-30T14:04:13;2.13;;;2.03;;
4214;SDS011;2121;48.062;7.850;2023-08-30T14:06:39;3.17;;;1.88;;
4214;SDS011;2121;48.062;7.850;2023-08-30T14:09:05;3.38;;;1.98;;
4214;SDS011;2121;48.062;7.850;2023-08-30T14:11:33;1.95;;;1.45;;
4214;SDS011;2121;48.062;7.850;2023-08-30T14:14:01;3.38;;;1.67;;
4214;SDS011;2121;48.062;7.850;2023-08-30T14:16:27;3.05;;;1.52;;
4214;SDS011;2121;48.062;7.850;2023-08-30T14:18:53;1.90;;;1.80;;
4214;SDS011;2121;48.062;7.850;2023-08-30T14:21:19;2.10;;;2.00;;
4214;SDS011;2121;48.062;7.850;2023-08-30T14:23:45;1.80;;;1.70;;
4214;SDS011;2121;48.062;7.850;2023-08-30T14:26:11;3.38;;;1.88;;
4214;SDS011;2121;48.062;7.850;2023-08-30T14:28:41;4.20;;;1.92;;
4214;SDS011;2121;48.062;7.850;2023-08-30T14:31:07;1.67;;;1.57;;
4214;SDS011;2121;48.062;7.850;2023-08-30T14:33:36;1.70;;;1.60;;
4214;SDS011;2121;48.062;7.850;2023-08-30T14:36:03;2.43;;;1.80;;
4214;SDS011;2121;48.062;7.850;2023-08-30T14:38:33;2.60;;;2.40;;
4214;SDS011;2121;48.062;7.850;2023-08-30T14:41:01;1.70;;;1.60;;
4214;SDS011;2121;48.062;7.850;2023-08-30T14:43:27;3.17;;;1.80;;
4214;SDS011;2121;48.062;7.850;2023-08-30T14:46:00;2.20;;;2.10;;
4214;SDS011;2121;48.062;7.850;2023-08-30T14:48:26;2.07;;;1.87;;
4214;SDS011;2121;48.062;7.850;2023-08-30T14:50:52;2.93;;;2.20;;
4214;SDS011;2121;48.062;7.850;2023-08-30T14:53:17;2.77;;;2.00;;
4214;SDS011;2121;48.062;7.850;2023-08-30T14:55:46;2.00;;;1.90;;
4214;SDS011;2121;48.062;7.850;2023-08-30T14:58:12;1.70;;;1.60;;
4214;SDS011;2121;48.062;7.850;2023-08-30T15:00:38;1.60;;;1.50;;
4214;SDS011;2121;48.062;7.850;2023-08-30T15:03:05;7.33;;;2.30;;
4214;SDS011;2121;48.062;7.850;2023-08-30T15:05:31;2.20;;;2.10;;
4214;SDS011;2121;48.062;7.850;2023-08-30T15:07:56;2.25;;;2.15;;
4214;SDS011;2121;48.062;7.850;2023-08-30T15:10:23;1.98;;;1.88;;
4214;SDS011;2121;48.062;7.850;2023-08-30T15:12:49;1.95;;;1.67;;
4214;SDS011;2121;48.062;7.850;2023-08-30T15:15:15;2.75;;;1.73;;
4214;SDS011;2121;48.062;7.850;2023-08-30T15:17:41;2.80;;;2.13;;
4214;SDS011;2121;48.062;7.850;2023-08-30T15:20:07;6.00;;;2.25;;
4214;SDS011;2121;48.062;7.850;2023-08-30T15:22:33;1.42;;;1.33;;